Time;durP1;ratioP1;P1;durP2;ratioP2;P2;SDS_P1;SDS_P2;PMS_P1;PMS_P2;Temp;Humidity;BMP_temperature;BMP_pressure;BME280_temperature;BME280_humidity;BME280_pressure;Samples;Min_cycle;Max_cycle;Signal;HPM_P1;HPM_P2
2022/08/30 00:01:24;;;;;;;8.10;4.68;;;;;;;13.29;100.00;100122.63;4847837;29;20086;-86
2022/08/30 00:03:50;;;;;;;6.78;4.40;;;;;;;13.27;100.00;100121.19;4848954;29;20037;-85
2022/08/30 00:06:18;;;;;;;5.68;4.68;;;;;;;13.24;100.00;100117.09;4847955;29;20030;-84
2022/08/30 00:08:44;;;;;;;8.73;4.15;;;;;;;13.26;100.00;100120.38;4850756;29;20492;-84
2022/08/30 00:11:13;;;;;;;9.70;4.28;;;;;;;13.20;100.00;100115.84;4851342;29;20108;-85
2022/08/30 00:13:42;;;;;;;7.43;3.85;;;;;;;13.20;100.00;100121.13;4846987;29;20120;-86
2022/08/30 00:16:08;;;;;;;9.13;4.75;;;;;;;13.05;100.00;100109.78;4851801;29;20025;-86
2022/08/30 00:18:35;;;;;;;7.28;4.30;;;;;;;13.09;100.00;100113.66;4846814;29;20838;-85
2022/08/30 00:21:01;;;;;;;9.38;4.13;;;;;;;13.08;100.00;100115.50;4853726;29;20037;-86
2022/08/30 00:23:27;;;;;;;6.30;4.28;;;;;;;12.98;100.00;100113.16;4863221;29;20046;-84
2022/08/30 00:25:53;;;;;;;5.65;3.95;;;;;;;12.99;100.00;100106.88;4851523;29;20408;-86
2022/08/30 00:28:18;;;;;;;10.10;4.35;;;;;;;13.07;100.00;100116.50;4867189;29;20026;-85
2022/08/30 00:30:45;;;;;;;5.75;4.05;;;;;;;13.08;100.00;100109.41;4851107;29;20561;-85
2022/08/30 00:33:12;;;;;;;7.38;4.32;;;;;;;13.16;100.00;100117.19;4853264;29;20033;-84
2022/08/30 00:35:38;;;;;;;8.07;4.07;;;;;;;13.27;100.00;100115.91;4851705;29;20038;-85
2022/08/30 00:38:05;;;;;;;5.15;4.43;;;;;;;13.25;100.00;100113.47;4850814;29;20030;-86
2022/08/30 00:40:31;;;;;;;7.82;4.13;;;;;;;13.39;100.00;100117.06;4848860;29;20046;-86
2022/08/30 00:42:59;;;;;;;6.03;3.67;;;;;;;13.47;100.00;100121.44;4850413;29;20029;-86
2022/08/30 00:45:32;;;;;;;5.32;3.97;;;;;;;13.57;100.00;100119.31;4851835;29;20014;-85
2022/08/30 00:47:59;;;;;;;6.95;3.90;;;;;;;13.59;100.00;100118.31;4847132;29;20026;-86
2022/08/30 00:50:34;;;;;;;4.22;3.35;;;;;;;13.63;100.00;100120.38;4849238;29;20034;-84
2022/08/30 00:53:03;;;;;;;3.83;3.47;;;;;;;13.67;100.00;100110.25;4848864;29;20041;-84
2022/08/30 00:55:29;;;;;;;7.88;3.88;;;;;;;13.63;100.00;100130.91;4846143;29;20033;-87
2022/08/30 00:57:58;;;;;;;4.75;3.42;;;;;;;13.66;100.00;100124.47;4851896;29;20044;-84
2022/08/30 01:00:24;;;;;;;5.07;3.65;;;;;;;13.65;100.00;100122.81;4847708;29;20520;-86
2022/08/30 01:02:50;;;;;;;5.97;3.67;;;;;;;13.67;100.00;100116.38;4865858;29;20041;-85
2022/08/30 01:05:16;;;;;;;6.95;3.80;;;;;;;13.69;100.00;100118.81;4846583;29;20061;-86
2022/08/30 01:07:42;;;;;;;7.40;3.70;;;;;;;13.72;100.00;100115.78;4850386;29;20026;-86
2022/08/30 01:10:14;;;;;;;8.77;3.97;;;;;;;13.82;100.00;100118.94;4847854;29;20056;-86
2022/08/30 01:12:41;;;;;;;4.93;3.83;;;;;;;13.75;100.00;100128.59;4851500;29;20033;-85
2022/08/30 01:15:08;;;;;;;6.18;3.30;;;;;;;13.82;100.00;100118.94;4861960;29;20033;-85
2022/08/30 01:17:34;;;;;;;9.68;3.88;;;;;;;13.78;100.00;100116.84;4850589;29;20181;-87
2022/08/30 01:20:08;;;;;;;4.25;3.58;;;;;;;13.83;100.00;100128.50;4849720;29;20436;-85
2022/08/30 01:22:49;;;;;;;5.35;3.67;;;;;;;13.83;100.00;100125.84;4849484;29;20116;-85
2022/08/30 01:25:28;;;;;;;7.32;3.40;;;;;;;13.83;100.00;100136.41;4845553;29;20467;-86
2022/08/30 01:28:00;;;;;;;6.70;3.70;;;;;;;13.67;100.00;100124.28;4846250;29;20030;-86
2022/08/30 01:30:28;;;;;;;7.22;3.95;;;;;;;13.64;100.00;100119.38;4864106;29;20029;-86
2022/08/30 01:32:58;;;;;;;6.20;3.45;;;;;;;13.55;100.00;100123.94;4849290;29;20030;-85
2022/08/30 01:35:24;;;;;;;6.97;3.67;;;;;;;13.32;100.00;100121.44;4851290;29;20049;-86
2022/08/30 01:37:50;;;;;;;3.88;3.50;;;;;;;13.35;100.00;100122.88;4849288;29;20037;-85
2022/08/30 01:40:17;;;;;;;5.72;3.15;;;;;;;13.21;100.00;100122.75;4851377;29;20502;-86
2022/08/30 01:42:43;;;;;;;9.23;4.30;;;;;;;13.25;100.00;100128.44;4848694;29;20048;-88
2022/08/30 01:45:09;;;;;;;6.45;3.47;;;;;;;13.26;100.00;100111.63;4845935;29;20033;-85
2022/08/30 01:47:35;;;;;;;4.25;3.42;;;;;;;13.29;100.00;100120.00;4849588;29;20069;-86
2022/08/30 01:50:01;;;;;;;4.38;3.38;;;;;;;13.16;100.00;100114.56;4850992;29;20052;-85
2022/08/30 01:52:26;;;;;;;7.47;3.78;;;;;;;13.13;100.00;100114.94;4849081;29;20029;-86
2022/08/30 01:54:52;;;;;;;5.82;3.30;;;;;;;13.02;100.00;100124.13;4850653;29;20030;-86
2022/08/30 01:57:20;;;;;;;4.68;3.13;;;;;;;12.99;100.00;100109.50;4850634;29;20121;-86
2022/08/30 01:59:48;;;;;;;6.53;3.88;;;;;;;13.02;100.00;100123.31;4850503;29;20068;-86
2022/08/30 02:02:18;;;;;;;6.25;3.40;;;;;;;12.94;100.00;100119.78;4849088;29;20190;-86
2022/08/30 02:04:44;;;;;;;4.20;3.30;;;;;;;12.78;100.00;100107.63;4848129;29;20412;-86
2022/08/30 02:07:09;;;;;;;5.75;3.05;;;;;;;12.82;100.00;100108.06;4847454;29;20048;-86
2022/08/30 02:09:36;;;;;;;4.00;3.00;;;;;;;12.83;100.00;100117.63;4850695;29;20041;-85
2022/08/30 02:12:04;;;;;;;6.47;3.47;;;;;;;12.81;100.00;100115.16;4853067;29;20053;-86
2022/08/30 02:14:30;;;;;;;5.10;3.13;;;;;;;12.80;100.00;100102.97;4851953;29;20476;-86
2022/08/30 02:16:56;;;;;;;3.90;2.60;;;;;;;12.77;100.00;100105.97;4850941;29;20089;-86
2022/08/30 02:19:21;;;;;;;7.15;2.85;;;;;;;12.76;100.00;100100.88;4847456;29;20053;-86
2022/08/30 02:21:47;;;;;;;4.00;3.03;;;;;;;12.76;100.00;100106.16;4851018;29;20113;-86
2022/08/30 02:24:12;;;;;;;3.92;2.78;;;;;;;12.73;100.00;100107.34;4868228;29;20513;-88
2022/08/30 02:26:38;;;;;;;3.95;3.15;;;;;;;12.66;100.00;100109.88;4836542;29;20510;-85
2022/08/30 02:29:04;;;;;;;5.95;2.88;;;;;;;12.68;100.00;100099.97;4854799;29;20412;-86
2022/08/30 02:31:30;;;;;;;4.07;2.63;;;;;;;12.64;100.00;100104.00;4856419;29;20112;-86
2022/08/30 02:33:56;;;;;;;5.28;3.08;;;;;;;12.59;100.00;100098.47;4854413;29;20439;-87
2022/08/30 02:36:22;;;;;;;3.08;2.72;;;;;;;12.64;100.00;100100.53;4854007;29;20102;-86
2022/08/30 02:38:49;;;;;;;4.30;3.10;;;;;;;12.50;100.00;100084.56;4849096;29;20053;-88
2022/08/30 02:41:15;;;;;;;4.93;3.15;;;;;;;12.46;100.00;100080.63;4854763;29;20066;-87
2022/08/30 02:43:41;;;;;;;7.95;3.50;;;;;;;12.47;100.00;100089.34;4850367;29;20037;-88
2022/08/30 02:46:07;;;;;;;4.32;3.17;;;;;;;12.51;100.00;100099.34;4870737;29;20395;-88
2022/08/30 02:48:33;;;;;;;5.28;3.08;;;;;;;12.47;100.00;100097.25;4851295;29;20033;-88
2022/08/30 02:51:08;;;;;;;3.08;2.70;;;;;;;12.51;100.00;100090.63;4848959;29;20030;-86
2022/08/30 02:53:33;;;;;;;3.90;2.90;;;;;;;12.41;100.00;100083.00;4866851;29;20498;-88
2022/08/30 02:55:59;;;;;;;5.95;2.80;;;;;;;12.50;100.00;100099.53;4852087;29;20033;-86
2022/08/30 02:58:24;;;;;;;7.78;2.80;;;;;;;12.47;100.00;100094.63;4853480;29;20036;-87
2022/08/30 03:00:50;;;;;;;4.97;2.92;;;;;;;12.34;100.00;100080.25;4852554;29;20072;-86
2022/08/30 03:03:16;;;;;;;6.47;2.80;;;;;;;12.37;100.00;100100.16;4853132;29;20057;-87
2022/08/30 03:05:43;;;;;;;4.13;2.63;;;;;;;12.34;100.00;100082.09;4855627;29;20105;-87
2022/08/30 03:08:09;;;;;;;7.35;3.05;;;;;;;12.36;100.00;100093.25;4853093;29;20029;-87
2022/08/30 03:10:35;;;;;;;5.15;2.72;;;;;;;12.36;100.00;100095.88;4851565;29;20085;-86
2022/08/30 03:13:01;;;;;;;5.85;3.10;;;;;;;12.26;100.00;100077.72;4848362;29;20041;-85
2022/08/30 03:15:27;;;;;;;4.72;3.22;;;;;;;12.33;100.00;100085.72;4853286;29;20512;-87
2022/08/30 03:17:53;;;;;;;5.93;3.40;;;;;;;12.27;100.00;100098.59;4849742;29;20067;-86
2022/08/30 03:20:20;;;;;;;4.38;3.13;;;;;;;12.24;100.00;100100.78;4852794;29;20117;-89
2022/08/30 03:22:47;;;;;;;5.72;3.20;;;;;;;12.19;100.00;100084.72;4850529;29;20038;-86
2022/08/30 03:25:13;;;;;;;3.08;2.50;;;;;;;12.28;100.00;100096.78;4851514;29;20098;-87
2022/08/30 03:27:39;;;;;;;9.75;2.80;;;;;;;12.23;100.00;100093.88;4850468;29;20030;-88
2022/08/30 03:30:06;;;;;;;4.05;2.90;;;;;;;12.17;100.00;100090.13;4852986;29;20085;-86
2022/08/30 03:32:32;;;;;;;6.18;3.10;;;;;;;12.19;100.00;100108.41;4852671;29;20057;-87
2022/08/30 03:34:58;;;;;;;15.05;3.35;;;;;;;12.06;100.00;100083.50;4848937;29;20037;-86
2022/08/30 03:37:24;;;;;;;3.75;2.83;;;;;;;12.05;100.00;100091.56;4852371;29;20048;-87
2022/08/30 03:39:50;;;;;;;5.55;3.03;;;;;;;12.18;100.00;100096.22;4848840;29;20026;-87
2022/08/30 03:42:16;;;;;;;4.28;3.05;;;;;;;12.07;100.00;100090.41;4853568;29;20125;-86
2022/08/30 03:44:41;;;;;;;5.80;3.15;;;;;;;12.09;100.00;100083.13;4850898;29;20392;-86
2022/08/30 03:47:07;;;;;;;3.33;3.00;;;;;;;12.06;100.00;100083.50;4849748;29;20468;-86
2022/08/30 03:49:33;;;;;;;5.32;3.20;;;;;;;12.02;100.00;100087.50;4848443;29;20037;-84
2022/08/30 03:51:59;;;;;;;3.95;3.00;;;;;;;11.99;100.00;100087.81;4851519;29;20412;-86
2022/08/30 03:54:24;;;;;;;7.43;3.30;;;;;;;11.98;100.00;100091.41;4849369;29;20033;-86
2022/08/30 03:56:51;;;;;;;3.53;2.90;;;;;;;12.05;100.00;100092.38;4847344;29;20116;-86
2022/08/30 03:59:16;;;;;;;5.50;3.53;;;;;;;11.97;100.00;100100.31;4852086;29;20121;-87
2022/08/30 04:01:44;;;;;;;6.05;3.42;;;;;;;11.95;100.00;100092.59;4849841;29;20477;-88
2022/08/30 04:04:10;;;;;;;4.75;3.20;;;;;;;11.88;100.00;100080.34;4849416;29;20148;-87
2022/08/30 04:06:36;;;;;;;4.80;2.90;;;;;;;11.83;100.00;100080.84;4849481;29;20037;-87
2022/08/30 04:09:03;;;;;;;5.85;3.22;;;;;;;11.91;100.00;100091.34;4852660;29;20033;-88
2022/08/30 04:11:28;;;;;;;4.68;3.00;;;;;;;11.81;100.00;100080.22;4849095;29;20042;-88
2022/08/30 04:13:55;;;;;;;8.68;3.67;;;;;;;11.75;100.00;100073.84;4848416;29;20045;-87
2022/08/30 04:16:23;;;;;;;4.78;3.05;;;;;;;11.85;100.00;100089.38;4848705;29;20782;-88
2022/08/30 04:18:58;;;;;;;4.07;3.40;;;;;;;11.90;100.00;100096.75;4866654;29;20500;-87
2022/08/30 04:21:24;;;;;;;9.95;3.47;;;;;;;11.88;100.00;100102.19;4851108;29;20068;-87
2022/08/30 04:23:54;;;;;;;5.50;3.03;;;;;;;11.85;100.00;100111.25;4852710;29;20130;-87
2022/08/30 04:26:20;;;;;;;4.18;2.97;;;;;;;11.84;100.00;100101.75;4850155;29;20482;-87
2022/08/30 04:28:46;;;;;;;8.20;2.97;;;;;;;11.85;100.00;100105.16;4854258;29;20064;-86
2022/08/30 04:31:14;;;;;;;6.47;3.22;;;;;;;11.79;100.00;100083.03;4846928;29;20041;-86
2022/08/30 04:33:43;;;;;;;6.65;3.33;;;;;;;11.71;100.00;100088.34;4850333;29;20033;-87
2022/08/30 04:36:10;;;;;;;7.00;3.28;;;;;;;11.79;100.00;100090.94;4850477;29;20388;-87
2022/08/30 04:38:38;;;;;;;4.90;3.20;;;;;;;11.81;100.00;100096.84;4849092;29;20034;-89
2022/08/30 04:41:12;;;;;;;8.85;3.50;;;;;;;11.90;100.00;100110.75;4847662;29;20026;-88
2022/08/30 04:43:38;;;;;;;6.35;3.42;;;;;;;11.84;100.00;100106.16;4848374;29;20030;-86
2022/08/30 04:46:06;;;;;;;6.45;3.75;;;;;;;11.83;100.00;100100.09;4850086;29;20040;-85
2022/08/30 04:48:32;;;;;;;4.85;3.28;;;;;;;11.83;100.00;100105.38;4861663;29;20048;-87
2022/08/30 04:50:57;;;;;;;4.82;3.08;;;;;;;11.88;100.00;100104.00;4866046;29;20030;-87
2022/08/30 04:53:23;;;;;;;5.80;3.13;;;;;;;11.91;100.00;100108.91;4849823;29;20033;-86
2022/08/30 04:55:52;;;;;;;7.35;3.47;;;;;;;11.89;100.00;100111.75;4834269;29;20469;-87
2022/08/30 04:58:17;;;;;;;6.10;3.42;;;;;;;11.74;100.00;100101.16;4831955;29;20055;-88
2022/08/30 05:00:43;;;;;;;8.18;3.97;;;;;;;11.78;100.00;100097.16;4853980;29;20492;-86
2022/08/30 05:03:09;;;;;;;4.53;3.45;;;;;;;11.75;100.00;100094.88;4850773;29;20034;-87
2022/08/30 05:05:38;;;;;;;6.68;3.10;;;;;;;11.72;100.00;100113.66;4849050;29;20086;-86
2022/08/30 05:08:07;;;;;;;4.05;3.20;;;;;;;11.71;100.00;100107.59;4849180;29;20029;-87
2022/08/30 05:10:33;;;;;;;5.45;3.15;;;;;;;11.65;100.00;100110.09;4854510;29;20033;-86
2022/08/30 05:12:58;;;;;;;6.80;3.13;;;;;;;11.67;100.00;100116.00;4847443;29;20044;-89
2022/08/30 05:15:25;;;;;;;11.95;3.92;;;;;;;11.58;100.00;100102.88;4847165;29;20036;-84
2022/08/30 05:17:51;;;;;;;4.68;3.20;;;;;;;11.76;100.00;100111.50;4852818;29;20037;-86
2022/08/30 05:20:17;;;;;;;6.63;3.15;;;;;;;11.79;100.00;100114.63;4847585;29;20109;-86
2022/08/30 05:22:50;;;;;;;6.47;2.88;;;;;;;11.78;100.00;100118.19;4846560;29;20026;-88
2022/08/30 05:25:23;;;;;;;7.57;3.25;;;;;;;11.71;100.00;100110.22;4848362;29;20034;-87
2022/08/30 05:27:50;;;;;;;4.90;3.03;;;;;;;11.67;100.00;100110.75;4849557;29;20029;-85
2022/08/30 05:30:17;;;;;;;5.85;3.22;;;;;;;11.67;100.00;100113.38;4850910;29;20045;-87
2022/08/30 05:32:43;;;;;;;6.05;3.08;;;;;;;11.79;100.00;100114.63;4847334;29;20038;-86
2022/08/30 05:35:14;;;;;;;5.45;3.22;;;;;;;11.94;100.00;100132.25;4848320;29;20029;-86
2022/08/30 05:37:40;;;;;;;8.35;3.45;;;;;;;11.93;100.00;100131.44;4849452;29;20480;-87
2022/08/30 05:40:07;;;;;;;3.97;3.20;;;;;;;11.95;100.00;100125.97;4848861;29;20395;-86
2022/08/30 05:42:34;;;;;;;4.55;3.00;;;;;;;11.99;100.00;100135.19;4847730;29;20033;-86
2022/08/30 05:45:01;;;;;;;5.93;3.10;;;;;;;12.06;100.00;100128.22;4851590;29;20033;-85
2022/08/30 05:47:27;;;;;;;7.40;2.80;;;;;;;12.00;100.00;100113.13;4847884;29;20037;-87
2022/08/30 05:49:57;;;;;;;5.13;3.42;;;;;;;12.05;100.00;100118.72;4850395;29;20077;-86
2022/08/30 05:52:22;;;;;;;3.30;2.78;;;;;;;12.13;100.00;100131.78;4848131;29;20030;-86
2022/08/30 05:54:58;;;;;;;4.80;2.88;;;;;;;12.21;100.00;100133.53;4862455;29;20465;-88
2022/08/30 05:57:24;;;;;;;6.38;3.10;;;;;;;12.16;100.00;100125.34;4849545;29;20046;-87
2022/08/30 05:59:53;;;;;;;12.25;3.05;;;;;;;12.08;100.00;100118.34;4861733;29;20042;-86
2022/08/30 06:02:18;;;;;;;5.00;3.05;;;;;;;12.26;100.00;100120.66;4853883;29;20095;-86
2022/08/30 06:04:44;;;;;;;4.38;2.95;;;;;;;12.34;100.00;100135.53;4834631;29;20042;-86
2022/08/30 06:07:10;;;;;;;5.18;3.00;;;;;;;12.27;100.00;100132.81;4848164;29;20026;-85
2022/08/30 06:09:36;;;;;;;4.93;3.00;;;;;;;12.23;100.00;100120.19;4848795;29;20094;-87
2022/08/30 06:12:02;;;;;;;3.28;2.50;;;;;;;12.32;100.00;100129.66;4849500;29;20037;-86
2022/08/30 06:14:27;;;;;;;3.33;2.47;;;;;;;12.36;100.00;100133.56;4843917;29;20034;-85
2022/08/30 06:16:53;;;;;;;3.63;2.97;;;;;;;12.35;100.00;100131.13;4847405;29;20469;-87
2022/08/30 06:19:19;;;;;;;5.78;4.13;;;;;;;12.47;100.00;100139.38;4846767;29;20041;-87
2022/08/30 06:21:49;;;;;;;5.00;2.78;;;;;;;12.51;100.00;100130.97;4850618;29;20037;-86
2022/08/30 06:24:15;;;;;;;7.07;2.70;;;;;;;12.67;100.00;100140.50;4860359;29;20046;-85
2022/08/30 06:26:44;;;;;;;7.60;3.05;;;;;;;12.66;100.00;100141.50;4845302;29;20053;-85
2022/08/30 06:29:21;;;;;;;9.82;3.72;;;;;;;12.56;100.00;100131.22;4842507;29;20544;-84
2022/08/30 06:31:49;;;;;;;5.85;3.13;;;;;;;12.65;100.00;100117.97;4843704;29;20057;-84
2022/08/30 06:34:15;;;;;;;7.65;2.97;;;;;;;12.78;100.00;100130.53;4847524;29;20080;-85
2022/08/30 06:36:41;;;;;;;5.35;3.33;;;;;;;12.85;100.00;100139.31;4845267;29;20117;-85
2022/08/30 06:39:15;;;;;;;9.55;3.03;;;;;;;12.85;100.00;100134.06;4846342;29;20061;-83
2022/08/30 06:41:42;;;;;;;4.80;3.25;;;;;;;12.85;100.00;100120.88;4849689;29;20048;-84
2022/08/30 06:44:08;;;;;;;5.28;3.22;;;;;;;12.97;100.00;100126.50;4861337;29;20110;-85
2022/08/30 06:46:42;;;;;;;8.52;3.70;;;;;;;13.21;100.00;100132.47;4865583;29;20034;-82
2022/08/30 06:49:07;;;;;;;6.20;2.95;;;;;;;13.15;100.00;100120.81;4848913;29;20565;-85
2022/08/30 06:51:37;;;;;;;5.88;2.65;;;;;;;13.22;100.00;100124.38;4847787;29;20091;-85
2022/08/30 06:54:03;;;;;;;6.35;2.80;;;;;;;13.39;100.00;100118.88;4866905;29;21437;-84
2022/08/30 06:56:29;;;;;;;4.10;2.78;;;;;;;13.44;100.00;100129.72;4847885;29;20030;-86
2022/08/30 06:58:55;;;;;;;6.97;3.17;;;;;;;13.50;100.00;100136.88;4850907;29;20040;-88
2022/08/30 07:01:24;;;;;;;5.10;3.13;;;;;;;13.52;100.00;100129.59;4849515;29;20705;-85
2022/08/30 07:03:57;;;;;;;8.95;2.70;;;;;;;13.59;100.00;100120.94;4854176;29;20090;-88
2022/08/30 07:06:24;;;;;;;7.10;2.58;;;;;;;13.67;100.00;100126.09;4853144;29;20388;-90
2022/08/30 07:08:55;;;;;;;4.35;2.60;;;;;;;13.72;100.00;100128.97;4850288;29;20033;-88
2022/08/30 07:11:30;;;;;;;3.83;2.50;;;;;;;13.90;100.00;100139.09;4850580;29;20029;-89
2022/08/30 07:13:56;;;;;;;6.47;2.65;;;;;;;13.85;100.00;100128.28;4848347;29;20497;-87
2022/08/30 07:16:23;;;;;;;5.10;2.80;;;;;;;13.87;100.00;100136.03;4857899;29;20034;-88
2022/08/30 07:18:57;;;;;;;;;;;;;;;13.96;100.00;100137.53;4850569;29;20084;-87
2022/08/30 07:21:34;;;;;;;3.60;2.42;;;;;;;13.92;100.00;100125.72;4852413;29;20447;-87
2022/08/30 07:24:01;;;;;;;3.22;2.30;;;;;;;14.11;100.00;100122.41;4834364;29;20038;-87
2022/08/30 07:26:32;;;;;;;8.93;3.22;;;;;;;14.17;100.00;100134.03;4851235;29;20387;-88
2022/08/30 07:28:57;;;;;;;5.65;2.88;;;;;;;14.21;100.00;100142.41;4833916;29;20041;-88
2022/08/30 07:31:33;;;;;;;6.10;2.70;;;;;;;14.27;100.00;100131.91;4853428;29;20444;-88
2022/08/30 07:33:59;;;;;;;5.53;2.83;;;;;;;14.40;100.00;100141.75;4846427;29;20033;-87
2022/08/30 07:36:24;;;;;;;5.80;2.78;;;;;;;14.34;100.00;100155.69;4850874;29;20549;-86
2022/08/30 07:38:51;;;;;;;4.90;3.03;;;;;;;14.42;100.00;100137.09;4867315;29;20047;-87
2022/08/30 07:41:25;;;;;;;3.92;2.90;;;;;;;14.60;100.00;100145.50;4849010;29;20033;-87
2022/08/30 07:44:01;;;;;;;9.50;4.10;;;;;;;14.68;100.00;100143.53;4854878;29;20030;-87
2022/08/30 07:46:28;;;;;;;7.60;3.50;;;;;;;14.70;100.00;100136.22;4851020;29;20042;-88
2022/08/30 07:48:54;;;;;;;3.25;2.90;;;;;;;14.79;100.00;100144.84;4854508;29;20060;-87
2022/08/30 07:51:24;;;;;;;3.85;3.05;;;;;;;14.81;100.00;100145.47;4854663;29;20108;-87
2022/08/30 07:53:51;;;;;;;7.72;3.00;;;;;;;14.75;100.00;100148.91;4848402;29;20530;-88
2022/08/30 07:56:17;;;;;;;9.10;3.28;;;;;;;14.75;100.00;100142.81;4848395;29;20042;-86
2022/08/30 07:58:45;;;;;;;7.50;3.05;;;;;;;14.79;100.00;100149.34;4849688;29;20401;-87
2022/08/30 08:01:11;;;;;;;5.78;2.75;;;;;;;14.77;100.00;100146.06;4850478;29;20034;-88
2022/08/30 08:03:49;;;;;;;6.28;3.30;;;;;;;14.90;100.00;100151.41;4850817;29;20069;-88
2022/08/30 08:06:19;;;;;;;6.15;2.67;;;;;;;15.01;100.00;100151.88;4832587;29;20128;-85
2022/08/30 08:08:55;;;;;;;4.55;2.70;;;;;;;15.04;100.00;100143.56;4831419;29;20042;-86
2022/08/30 08:11:25;;;;;;;5.60;3.03;;;;;;;15.32;100.00;100154.03;4850399;29;20029;-87
2022/08/30 08:13:53;;;;;;;7.00;2.67;;;;;;;15.48;100.00;100154.72;4851503;29;20041;-86
2022/08/30 08:16:22;;;;;;;5.78;2.60;;;;;;;15.56;100.00;100149.22;4848258;29;20033;-84
2022/08/30 08:18:49;;;;;;;4.22;2.70;;;;;;;15.56;100.00;100157.16;4847030;29;20058;-85
2022/08/30 08:21:14;;;;;;;4.32;2.42;;;;;;;15.34;100.00;100143.28;4866644;29;20041;-85
2022/08/30 08:23:40;;;;;;;7.35;3.50;;;;;;;15.62;100.00;100168.78;4847858;29;20029;-86
2022/08/30 08:26:06;;;;;;;3.67;2.67;;;;;;;15.68;100.00;100152.09;4848802;29;20034;-86
2022/08/30 08:28:32;;;;;;;5.10;2.92;;;;;;;15.54;100.00;100144.16;4847883;29;20425;-87
2022/08/30 08:30:57;;;;;;;6.30;2.90;;;;;;;15.62;100.00;100148.41;4849999;29;20064;-86
2022/08/30 08:33:33;;;;;;;6.55;2.85;;;;;;;15.82;100.00;100171.47;4849378;29;20040;-87
2022/08/30 08:35:58;;;;;;;5.80;2.75;;;;;;;15.77;100.00;100164.13;4844792;29;20691;-86
2022/08/30 08:38:24;;;;;;;5.22;3.30;;;;;;;16.01;100.00;100167.25;4845820;29;20504;-87
2022/08/30 08:41:11;;;;;;;3.88;2.70;;;;;;;15.95;100.00;100162.78;4861981;29;20059;-86
2022/08/30 08:43:38;;;;;;;5.00;2.78;;;;;;;16.05;100.00;100167.66;4849477;29;20567;-86
2022/08/30 08:46:28;;;;;;;5.50;2.95;;;;;;;15.84;100.00;100166.81;4831830;29;20118;-86
2022/08/30 08:49:05;;;;;;;5.78;2.50;;;;;;;15.92;100.00;100168.47;4844668;29;20033;-87
2022/08/30 08:54:41;;;;;;;3.10;2.80;;;;;;;15.77;100.00;100161.50;4848331;29;20033;-86
2022/08/30 08:57:09;;;;;;;5.35;2.83;;;;;;;15.74;100.00;100148.66;4846807;29;20050;-85
2022/08/30 08:59:36;;;;;;;2.97;2.67;;;;;;;15.99;100.00;100153.41;4846418;29;20037;-87
2022/08/30 09:02:22;;;;;;;6.50;2.95;;;;;;;16.26;100.00;100164.00;4860375;29;20060;-85
2022/08/30 09:04:59;;;;;;;6.07;2.72;;;;;;;16.07;100.00;100152.38;4843290;29;20040;-84
2022/08/30 09:07:38;;;;;;;3.70;2.40;;;;;;;15.50;100.00;100086.53;4848011;29;20037;-85
2022/08/30 09:10:15;;;;;;;4.82;2.63;;;;;;;15.65;100.00;100088.97;4832100;29;20041;-82
2022/08/30 09:12:44;;;;;;;4.63;2.53;;;;;;;16.22;100.00;100125.69;4860595;29;20064;-85
2022/08/30 09:15:25;;;;;;;8.63;2.90;;;;;;;16.08;100.00;100077.22;4844349;29;20079;-84
2022/08/30 09:18:03;;;;;;;5.70;2.40;;;;;;;16.32;100.00;100091.66;4831007;29;20030;-84
2022/08/30 09:20:35;;;;;;;5.55;2.20;;;;;;;16.36;100.00;100090.22;4829766;29;20540;-84
2022/08/30 09:23:11;;;;;;;5.63;3.03;;;;;;;17.02;100.00;100159.22;4844707;29;20048;-83
2022/08/30 09:25:37;;;;;;;3.83;2.08;;;;;;;16.77;100.00;100137.84;4846005;29;20041;-84
2022/08/30 09:28:10;;;;;;;4.15;2.30;;;;;;;16.88;100.00;100145.13;4847594;29;20124;-83
2022/08/30 09:30:37;;;;;;;5.72;2.50;;;;;;;16.96;100.00;100158.16;4844733;29;20125;-83
2022/08/30 09:33:06;;;;;;;3.70;2.40;;;;;;;17.16;100.00;100159.97;4832766;29;20485;-82
2022/08/30 09:35:47;;;;;;;3.53;2.30;;;;;;;17.11;100.00;100154.50;4850548;29;20053;-83
2022/08/30 09:38:25;;;;;;;4.80;2.72;;;;;;;17.30;100.00;100152.75;4848986;29;20037;-84
2022/08/30 09:40:57;;;;;;;2.67;2.47;;;;;;;17.55;100.00;100155.50;4845904;29;20033;-84
2022/08/30 09:43:27;;;;;;;4.87;2.60;;;;;;;17.19;100.00;100146.28;4847320;29;20049;-86
2022/08/30 09:45:58;;;;;;;3.75;2.40;;;;;;;17.50;100.00;100170.41;4846267;29;20755;-86
2022/08/30 09:48:39;;;;;;;4.07;2.58;;;;;;;17.26;100.00;100157.66;4829819;29;20049;-86
2022/08/30 09:51:12;;;;;;;4.60;2.63;;;;;;;17.48;100.00;100162.66;4855809;29;20049;-84
2022/08/30 09:53:59;;;;;;;5.55;2.50;;;;;;;17.79;100.00;100161.06;4843915;29;20033;-86
2022/08/30 09:56:46;;;;;;;3.83;2.63;;;;;;;18.08;100.00;100153.53;4860185;29;20026;-87
2022/08/30 09:59:33;;;;;;;4.10;3.25;;;;;;;18.26;100.00;100162.56;4830161;29;20038;-86
2022/08/30 10:02:19;;;;;;;5.97;2.37;;;;;;;18.07;100.00;100146.56;4850069;29;20042;-87
2022/08/30 10:05:22;;;;;;;4.20;2.80;;;;;;;18.16;100.00;100151.63;4848906;29;20523;-84
2022/08/30 10:08:15;;;;;;;4.32;2.85;;;;;;;18.22;100.00;100148.91;4850028;29;20057;-85
2022/08/30 10:10:46;;;;;;;4.13;2.60;;;;;;;18.06;100.00;100139.63;4861880;29;20110;-84
2022/08/30 10:13:17;;;;;;;3.97;2.50;;;;;;;17.99;100.00;100165.41;4846209;29;20481;-84
2022/08/30 10:15:54;;;;;;;2.50;2.30;;;;;;;18.04;100.00;100152.31;4844485;29;20040;-86
2022/08/30 10:18:34;;;;;;;5.78;2.67;;;;;;;18.23;100.00;100144.41;4830538;29;20378;-85
2022/08/30 10:21:24;;;;;;;4.65;2.85;;;;;;;18.46;100.00;100142.97;4830486;29;20045;-86
2022/08/30 10:24:07;;;;;;;3.03;2.65;;;;;;;18.72;100.00;100157.03;4848144;29;20045;-84
2022/08/30 10:26:47;;;;;;;3.90;2.83;;;;;;;18.93;100.00;100158.44;4849733;29;20034;-85
2022/08/30 10:29:17;;;;;;;6.50;2.97;;;;;;;18.98;99.48;100154.09;4854003;29;20045;-85
2022/08/30 10:32:00;;;;;;;4.95;2.92;;;;;;;19.15;98.65;100155.34;4848868;29;20062;-84
2022/08/30 10:34:55;;;;;;;5.95;2.83;;;;;;;19.40;98.45;100137.41;4864089;29;20041;-85
2022/08/30 10:37:38;;;;;;;3.35;2.97;;;;;;;20.00;98.39;100153.56;4850258;29;20109;-85
2022/08/30 10:43:45;;;;;;;5.47;3.60;;;;;;;20.36;94.66;100132.28;4851424;29;20060;-85
2022/08/30 10:46:23;;;;;;;4.43;3.15;;;;;;;20.34;93.57;100132.50;4844952;29;20046;-85
2022/08/30 10:49:03;;;;;;;5.13;3.78;;;;;;;20.57;94.36;100133.50;4846990;29;20026;-85
2022/08/30 10:51:39;;;;;;;5.75;3.40;;;;;;;20.17;93.40;100139.56;4848042;29;20034;-87
2022/08/30 10:54:22;;;;;;;5.07;3.60;;;;;;;19.49;93.58;100134.41;4868857;29;20056;-86
2022/08/30 10:56:50;;;;;;;5.10;3.35;;;;;;;19.44;93.68;100136.97;4864402;29;20079;-87
2022/08/30 10:59:17;;;;;;;3.75;3.05;;;;;;;19.65;95.48;100124.97;4850219;29;20034;-87
2022/08/30 11:02:05;;;;;;;3.92;3.50;;;;;;;20.02;94.23;100142.69;4850936;29;20018;-85
2022/08/30 11:04:43;;;;;;;3.92;3.13;;;;;;;20.29;92.42;100131.56;4849445;29;20475;-86
2022/08/30 11:07:09;;;;;;;5.45;3.33;;;;;;;20.49;93.04;100128.56;4847370;29;20025;-85
2022/08/30 11:10:14;;;;;;;8.73;3.40;;;;;;;20.55;91.51;100136.44;4851480;29;20040;-86
2022/08/30 11:12:58;;;;;;;3.83;3.13;;;;;;;20.07;91.12;100135.63;4844163;29;20140;-86
2022/08/30 11:15:30;;;;;;;4.22;2.90;;;;;;;20.01;92.61;100125.06;4851117;29;20040;-86
2022/08/30 11:18:11;;;;;;;6.32;3.30;;;;;;;20.08;91.29;100129.25;4863683;29;20037;-86
2022/08/30 11:20:43;;;;;;;4.55;3.00;;;;;;;20.06;90.37;100136.66;4852990;29;20132;-85
2022/08/30 11:23:18;;;;;;;4.90;3.35;;;;;;;20.02;90.89;100143.47;4850760;29;20392;-86
2022/08/30 11:25:54;;;;;;;3.50;3.20;;;;;;;19.73;91.48;100129.16;4850314;29;20491;-87
2022/08/30 11:28:35;;;;;;;3.90;3.10;;;;;;;19.83;90.85;100138.22;4852640;29;20041;-86
2022/08/30 11:31:21;;;;;;;5.30;3.53;;;;;;;19.69;90.91;100134.16;4850768;29;20041;-87
2022/08/30 11:33:57;;;;;;;4.68;3.40;;;;;;;19.93;90.18;100131.56;4864396;29;20041;-85
2022/08/30 11:36:30;;;;;;;6.55;3.50;;;;;;;19.85;89.55;100132.66;4852276;29;20040;-88